Time;durP1;ratioP1;P1;durP2;ratioP2;P2;SDS_P1;SDS_P2;PMS_P1;PMS_P2;Temp;Humidity;BMP_temperature;BMP_pressure;BME280_temperature;BME280_humidity;BME280_pressure;Samples;Min_cycle;Max_cycle;Signal;HPM_P1;HPM_P2
2022/12/10 00:01:46;;;;;;;27.77;19.98;;;2.50;1.00;;;;;;5092990;27;20226;-78
2022/12/10 00:04:15;;;;;;;27.55;19.25;;;2.50;1.00;;;;;;5093391;27;20201;-78
2022/12/10 00:06:43;;;;;;;30.35;20.35;;;2.50;1.00;;;;;;5092239;28;20229;-78
2022/12/10 00:09:14;;;;;;;28.33;19.10;;;2.50;1.00;;;;;;5090970;28;20285;-76
2022/12/10 00:11:42;;;;;;;28.95;21.55;;;2.50;1.00;;;;;;5088591;28;20224;-78
2022/12/10 00:14:12;;;;;;;29.73;22.10;;;2.40;1.00;;;;;;5090615;28;20201;-77
2022/12/10 00:16:41;;;;;;;31.35;19.73;;;2.50;1.00;;;;;;5093551;28;20227;-78
2022/12/10 00:19:10;;;;;;;27.85;19.83;;;2.40;1.00;;;;;;5093341;28;20246;-76
2022/12/10 00:21:38;;;;;;;27.90;20.30;;;2.50;1.00;;;;;;5096936;28;20746;-77
2022/12/10 00:24:07;;;;;;;30.42;21.08;;;2.50;1.00;;;;;;5094942;27;20770;-77
2022/12/10 00:26:38;;;;;;;31.38;22.23;;;2.50;1.00;;;;;;5089946;28;20218;-77
2022/12/10 00:29:08;;;;;;;35.78;22.02;;;2.50;1.00;;;;;;5092578;27;20225;-79
2022/12/10 00:31:38;;;;;;;30.50;22.10;;;2.50;1.00;;;;;;5090043;27;20224;-79
2022/12/10 00:34:09;;;;;;;30.00;21.38;;;2.40;1.00;;;;;;5093481;28;20202;-78
2022/12/10 00:36:41;;;;;;;30.35;20.83;;;2.50;1.00;;;;;;5094261;28;20193;-78
2022/12/10 00:39:11;;;;;;;27.48;18.90;;;2.50;1.00;;;;;;5095673;28;20217;-79
2022/12/10 00:41:39;;;;;;;32.30;22.00;;;2.50;1.00;;;;;;5094670;28;20266;-78
2022/12/10 00:44:07;;;;;;;32.47;20.77;;;2.40;1.00;;;;;;5098973;28;20228;-79
2022/12/10 00:46:35;;;;;;;32.42;21.55;;;2.40;1.00;;;;;;5098571;28;20286;-77
2022/12/10 00:49:04;;;;;;;26.15;19.17;;;2.40;1.00;;;;;;5092829;28;20732;-78
2022/12/10 00:51:33;;;;;;;23.40;19.35;;;2.50;1.00;;;;;;5096855;28;20282;-78
2022/12/10 00:54:01;;;;;;;29.08;21.20;;;2.50;1.00;;;;;;5095077;28;20204;-79
2022/12/10 00:56:32;;;;;;;31.08;21.38;;;2.50;1.00;;;;;;5091202;28;20955;-80
2022/12/10 00:59:01;;;;;;;26.88;19.95;;;2.50;1.00;;;;;;5098926;28;20202;-77
2022/12/10 01:01:31;;;;;;;29.88;18.92;;;2.50;1.00;;;;;;5097611;28;20217;-78
2022/12/10 01:04:04;;;;;;;30.70;20.23;;;2.50;1.00;;;;;;5094459;28;20731;-78
2022/12/10 01:06:35;;;;;;;28.80;20.35;;;2.50;1.00;;;;;;5097136;28;20217;-77
2022/12/10 01:09:08;;;;;;;35.40;23.33;;;2.40;1.00;;;;;;5098290;28;20196;-79
2022/12/10 01:11:38;;;;;;;29.23;19.73;;;2.50;1.00;;;;;;5095047;28;20222;-80
2022/12/10 01:14:09;;;;;;;26.40;20.42;;;2.50;1.00;;;;;;5091903;28;20631;-77
2022/12/10 01:16:37;;;;;;;28.50;19.65;;;2.50;1.00;;;;;;5094546;28;20702;-78
2022/12/10 01:19:06;;;;;;;32.20;21.77;;;2.50;1.00;;;;;;5095801;28;20666;-78
2022/12/10 01:21:35;;;;;;;26.25;20.42;;;2.40;1.00;;;;;;5101660;28;20217;-78
2022/12/10 01:24:04;;;;;;;29.45;19.95;;;2.50;1.00;;;;;;5095209;28;20213;-77
2022/12/10 01:26:34;;;;;;;31.73;20.45;;;2.50;1.00;;;;;;5095901;28;20676;-76
2022/12/10 01:29:04;;;;;;;33.25;21.67;;;2.50;1.00;;;;;;5093278;28;20249;-77
2022/12/10 01:31:35;;;;;;;28.20;20.27;;;2.50;1.00;;;;;;5098432;28;20264;-77
2022/12/10 01:34:06;;;;;;;33.33;20.42;;;2.50;1.00;;;;;;5094506;28;20208;-77
2022/12/10 01:36:38;;;;;;;28.75;21.05;;;2.50;1.00;;;;;;5100194;28;20193;-77
2022/12/10 01:39:09;;;;;;;31.65;21.08;;;2.50;1.00;;;;;;5095112;28;20674;-76
2022/12/10 01:41:39;;;;;;;26.48;21.80;;;2.40;1.00;;;;;;5097455;28;20207;-77
2022/12/10 01:44:41;;;;;;;27.65;20.90;;;2.50;1.00;;;;;;5090317;28;20755;-77
2022/12/10 01:47:10;;;;;;;26.05;19.35;;;2.50;1.00;;;;;;5091132;28;20287;-78
2022/12/10 01:49:41;;;;;;;28.48;19.00;;;2.50;1.00;;;;;;5090192;28;20221;-78
2022/12/10 01:52:12;;;;;;;28.42;19.70;;;2.50;1.00;;;;;;5095453;28;20247;-77
2022/12/10 01:54:43;;;;;;;31.23;20.15;;;2.50;1.00;;;;;;5093700;28;20190;-80
2022/12/10 01:57:15;;;;;;;29.88;21.67;;;2.50;1.00;;;;;;5093620;28;20195;-78
2022/12/10 01:59:45;;;;;;;28.33;20.13;;;2.50;1.00;;;;;;5085673;28;21934;-78
2022/12/10 02:02:22;;;;;;;25.88;19.02;;;2.50;1.00;;;;;;5088642;28;20232;-78
2022/12/10 02:04:58;;;;;;;25.88;20.13;;;2.50;1.00;;;;;;5090033;28;20204;-78
2022/12/10 02:07:38;;;;;;;30.50;19.45;;;2.50;1.00;;;;;;5092144;28;20282;-77
2022/12/10 02:10:13;;;;;;;25.67;17.73;;;2.60;1.00;;;;;;5100013;28;20214;-78
2022/12/10 02:12:48;;;;;;;27.00;18.67;;;2.60;1.00;;;;;;5089729;28;20232;-78
2022/12/10 02:15:19;;;;;;;28.58;19.88;;;2.50;1.00;;;;;;5093733;28;20203;-80
2022/12/10 02:17:50;;;;;;;27.25;20.42;;;2.60;1.00;;;;;;5096041;28;20673;-77
2022/12/10 02:20:23;;;;;;;27.65;19.90;;;2.60;99.90;;;;;;5097768;28;20201;-78
2022/12/10 02:22:57;;;;;;;25.17;18.90;;;2.60;99.90;;;;;;5096599;28;20313;-77
2022/12/10 02:25:32;;;;;;;21.60;18.88;;;2.50;99.90;;;;;;5099277;28;20245;-77
2022/12/10 02:28:06;;;;;;;28.45;20.20;;;2.60;99.90;;;;;;5095615;28;20221;-77
2022/12/10 02:30:39;;;;;;;31.85;20.27;;;2.50;99.90;;;;;;5098094;28;20227;-79
2022/12/10 02:33:09;;;;;;;26.58;19.17;;;2.40;1.00;;;;;;5095713;28;20225;-78
2022/12/10 02:35:40;;;;;;;26.75;19.98;;;2.40;1.00;;;;;;5093593;28;20190;-78
2022/12/10 02:38:12;;;;;;;31.65;20.63;;;2.50;1.00;;;;;;5093861;28;20427;-79
2022/12/10 02:40:45;;;;;;;28.20;21.33;;;2.50;1.00;;;;;;5094868;28;20792;-78
2022/12/10 02:43:14;;;;;;;29.27;19.85;;;2.50;1.00;;;;;;5095678;28;20276;-78
2022/12/10 02:45:45;;;;;;;27.58;19.27;;;2.50;1.00;;;;;;5099942;27;20194;-79
2022/12/10 02:48:14;;;;;;;27.67;19.90;;;2.50;1.00;;;;;;5097159;28;20209;-79
2022/12/10 02:50:43;;;;;;;27.88;18.80;;;2.50;1.00;;;;;;5096305;28;20244;-79
2022/12/10 02:53:11;;;;;;;33.10;20.00;;;2.50;1.00;;;;;;5099189;28;20229;-80
2022/12/10 02:55:51;;;;;;;30.88;20.45;;;2.50;99.90;;;;;;5099103;28;20218;-79
2022/12/10 02:58:28;;;;;;;23.27;18.38;;;2.40;99.90;;;;;;5108109;28;20290;-79
2022/12/10 03:01:05;;;;;;;27.65;20.40;;;2.40;99.90;;;;;;5097419;28;20198;-78
2022/12/10 03:03:44;;;;;;;24.42;18.75;;;2.40;1.00;;;;;;5100189;28;20197;-79
2022/12/10 03:06:19;;;;;;;28.25;18.98;;;2.40;1.00;;;;;;5097798;28;20223;-79
2022/12/10 03:08:51;;;;;;;29.55;19.08;;;2.40;1.00;;;;;;5099696;28;20217;-78
2022/12/10 03:11:22;;;;;;;26.35;17.63;;;2.40;1.00;;;;;;5097609;28;20226;-78
2022/12/10 03:13:58;;;;;;;26.23;19.17;;;2.40;1.00;;;;;;5101580;27;20201;-80
2022/12/10 03:16:33;;;;;;;27.70;20.52;;;2.30;1.00;;;;;;5099555;28;20202;-80
2022/12/10 03:19:06;;;;;;;27.63;20.85;;;2.40;1.00;;;;;;5101476;28;20213;-78
2022/12/10 03:21:37;;;;;;;29.02;19.75;;;2.40;1.00;;;;;;5098314;28;20967;-77
2022/12/10 03:24:06;;;;;;;26.73;18.05;;;2.40;1.00;;;;;;5096828;28;20213;-79
2022/12/10 03:26:34;;;;;;;25.17;18.58;;;2.50;1.00;;;;;;5098144;28;20260;-78
2022/12/10 03:29:07;;;;;;;25.80;19.10;;;2.40;1.00;;;;;;5095764;27;20206;-79
2022/12/10 03:31:40;;;;;;;26.13;19.65;;;2.40;1.00;;;;;;5095325;28;20217;-76
2022/12/10 03:34:10;;;;;;;25.67;19.60;;;2.50;1.00;;;;;;5096822;28;20206;-78
2022/12/10 03:36:40;;;;;;;26.88;19.38;;;2.50;1.00;;;;;;5100774;27;20210;-78
2022/12/10 03:39:09;;;;;;;28.77;20.55;;;2.50;1.00;;;;;;5095568;28;20283;-77
2022/12/10 03:41:37;;;;;;;25.15;18.55;;;2.50;1.00;;;;;;5095099;28;20218;-78
2022/12/10 03:44:05;;;;;;;24.00;19.17;;;2.50;1.00;;;;;;5097143;27;20766;-79
2022/12/10 03:46:35;;;;;;;27.75;19.10;;;2.50;1.00;;;;;;5095965;27;20202;-78
2022/12/10 03:49:04;;;;;;;29.60;18.35;;;2.40;1.00;;;;;;5096242;28;20717;-79
2022/12/10 03:51:32;;;;;;;24.15;19.50;;;2.40;1.00;;;;;;5099063;27;20735;-77
2022/12/10 03:54:00;;;;;;;26.55;18.40;;;2.50;1.00;;;;;;5094292;28;20773;-76
2022/12/10 03:56:29;;;;;;;28.42;19.90;;;2.50;1.00;;;;;;5095242;28;20205;-77
2022/12/10 03:58:57;;;;;;;29.48;21.95;;;2.50;1.00;;;;;;5097238;28;20205;-77
2022/12/10 04:01:25;;;;;;;27.08;20.80;;;2.50;1.00;;;;;;5096661;27;20275;-78
2022/12/10 04:03:54;;;;;;;25.08;18.50;;;2.40;1.00;;;;;;5094670;28;20198;-76
2022/12/10 04:06:23;;;;;;;31.13;19.38;;;2.30;1.00;;;;;;5091711;28;20221;-77
2022/12/10 04:08:53;;;;;;;25.95;18.33;;;2.40;1.00;;;;;;5096922;28;21142;-78
2022/12/10 04:11:26;;;;;;;27.95;18.65;;;2.40;1.00;;;;;;5098902;28;20695;-79
2022/12/10 04:16:40;;;;;;;32.25;19.60;;;2.40;1.00;;;;;;5093235;28;20201;-78
2022/12/10 04:19:12;;;;;;;28.13;20.52;;;2.40;1.00;;;;;;5095067;27;20190;-78
2022/12/10 04:27:19;;;;;;;31.02;20.77;;;2.40;1.00;;;;;;5096962;28;20258;-77
2022/12/10 04:29:47;;;;;;;24.92;18.38;;;2.40;1.00;;;;;;5093538;28;20228;-78
2022/12/10 04:32:15;;;;;;;23.33;17.10;;;2.40;1.00;;;;;;5093412;28;20253;-78
2022/12/10 04:34:45;;;;;;;25.98;19.45;;;2.50;1.00;;;;;;5095253;28;20289;-78
2022/12/10 04:37:14;;;;;;;23.52;18.75;;;2.40;1.00;;;;;;5095576;27;20206;-76
2022/12/10 04:39:43;;;;;;;31.50;19.35;;;2.40;1.00;;;;;;5099652;28;20268;-78
2022/12/10 04:42:11;;;;;;;26.17;19.10;;;2.40;1.00;;;;;;5099451;28;20217;-77
2022/12/10 04:44:39;;;;;;;23.50;18.85;;;2.50;1.00;;;;;;5100092;27;20249;-77
2022/12/10 04:47:09;;;;;;;24.52;18.50;;;2.50;1.00;;;;;;5097534;28;20229;-77
2022/12/10 04:49:37;;;;;;;24.05;18.40;;;2.40;99.90;;;;;;5093874;28;20305;-77
2022/12/10 04:52:08;;;;;;;23.20;18.33;;;2.40;99.90;;;;;;5094702;28;20644;-78
2022/12/10 04:54:36;;;;;;;27.30;18.80;;;2.40;1.00;;;;;;5092198;28;20213;-78
2022/12/10 04:57:06;;;;;;;27.05;19.83;;;2.40;1.00;;;;;;5094580;28;20202;-78
2022/12/10 04:59:36;;;;;;;24.75;17.98;;;2.30;1.00;;;;;;5093798;28;20206;-79
2022/12/10 05:02:04;;;;;;;29.98;19.15;;;2.30;1.00;;;;;;5094771;28;21069;-78
2022/12/10 05:04:33;;;;;;;27.33;19.55;;;2.30;1.00;;;;;;5098637;28;20199;-78
2022/12/10 05:07:01;;;;;;;29.50;19.75;;;2.30;1.00;;;;;;5094384;28;20198;-78
2022/12/10 05:09:30;;;;;;;26.10;18.83;;;2.30;1.00;;;;;;5100157;28;20313;-77
2022/12/10 05:11:58;;;;;;;25.88;19.63;;;2.40;1.00;;;;;;5097815;28;20224;-78
2022/12/10 05:14:27;;;;;;;28.25;19.83;;;2.40;1.00;;;;;;5097568;28;20213;-77
2022/12/10 05:16:55;;;;;;;26.02;17.98;;;2.30;1.00;;;;;;5098874;28;20213;-77
2022/12/10 05:19:23;;;;;;;27.38;18.45;;;2.30;1.00;;;;;;5095595;28;20302;-76
2022/12/10 05:24:38;;;;;;;21.35;17.30;;;2.30;1.00;;;;;;5097725;28;20202;-78
2022/12/10 05:27:07;;;;;;;26.20;18.80;;;2.30;1.00;;;;;;5094085;28;20206;-78
2022/12/10 05:29:35;;;;;;;26.05;18.73;;;2.30;1.00;;;;;;5095198;28;21052;-77
2022/12/10 05:32:04;;;;;;;23.27;17.83;;;2.30;1.00;;;;;;5095247;28;20312;-79
2022/12/10 05:34:32;;;;;;;22.48;16.85;;;2.30;99.90;;;;;;5094216;28;20607;-78
2022/12/10 05:37:01;;;;;;;22.30;18.67;;;2.30;1.00;;;;;;5092896;28;20205;-78
2022/12/10 05:39:29;;;;;;;27.40;18.25;;;2.30;1.00;;;;;;5094266;28;20291;-78
2022/12/10 05:41:58;;;;;;;27.10;18.80;;;2.40;1.00;;;;;;5094720;28;20228;-79
2022/12/10 05:44:27;;;;;;;25.42;18.27;;;2.30;99.90;;;;;;5093956;28;20216;-79
2022/12/10 05:46:55;;;;;;;24.42;18.65;;;2.30;99.90;;;;;;5095182;28;20208;-78
2022/12/10 05:49:23;;;;;;;25.35;18.55;;;2.30;99.90;;;;;;5092316;27;20221;-76
2022/12/10 05:51:51;;;;;;;24.33;16.60;;;2.20;99.90;;;;;;5092757;27;20227;-77
2022/12/10 05:54:19;;;;;;;20.23;17.77;;;2.20;99.90;;;;;;5090125;27;20195;-78
2022/12/10 05:56:47;;;;;;;24.02;18.20;;;2.20;99.90;;;;;;5097722;27;20726;-78
2022/12/10 05:59:17;;;;;;;26.00;17.85;;;2.10;99.90;;;;;;5097841;28;20513;-79
2022/12/10 06:01:46;;;;;;;24.23;17.45;;;2.20;1.00;;;;;;5101505;28;20774;-78
2022/12/10 06:04:14;;;;;;;26.60;17.92;;;2.20;1.00;;;;;;5099249;28;20690;-80
2022/12/10 06:06:42;;;;;;;29.85;19.90;;;2.20;99.90;;;;;;5100095;28;20579;-77
2022/12/10 06:09:14;;;;;;;25.88;18.15;;;2.20;99.90;;;;;;5096616;27;20222;-77
2022/12/10 06:11:42;;;;;;;27.85;17.77;;;2.20;99.90;;;;;;5100916;28;20303;-79
2022/12/10 06:14:11;;;;;;;25.42;17.52;;;2.30;99.90;;;;;;5096507;28;20232;-78
2022/12/10 06:16:41;;;;;;;24.08;18.20;;;2.20;99.90;;;;;;5099975;28;20301;-78
2022/12/10 06:19:10;;;;;;;25.23;19.45;;;2.20;99.90;;;;;;5097105;28;20452;-79
2022/12/10 06:21:39;;;;;;;26.67;17.83;;;2.20;99.90;;;;;;5094976;28;20693;-77
2022/12/10 06:24:07;;;;;;;24.73;19.10;;;2.20;99.90;;;;;;5092917;28;20217;-78
2022/12/10 06:26:36;;;;;;;24.00;18.45;;;2.20;99.90;;;;;;5090564;28;20870;-79
2022/12/10 06:29:05;;;;;;;26.10;18.50;;;2.20;99.90;;;;;;5097328;28;20217;-78
2022/12/10 06:31:33;;;;;;;23.05;17.55;;;2.20;99.90;;;;;;5090073;27;20228;-76
2022/12/10 06:34:03;;;;;;;26.65;18.25;;;2.20;99.90;;;;;;5087590;27;20194;-77
2022/12/10 06:36:31;;;;;;;19.55;16.30;;;2.20;99.90;;;;;;5090594;28;20204;-79
2022/12/10 06:38:59;;;;;;;25.25;18.70;;;2.20;99.90;;;;;;5093581;28;20198;-78
2022/12/10 06:41:28;;;;;;;23.70;18.48;;;2.20;99.90;;;;;;5080088;28;20716;-77
2022/12/10 06:43:58;;;;;;;44.70;20.48;;;2.10;99.90;;;;;;5084497;28;20577;-78
2022/12/10 06:46:27;;;;;;;25.27;19.45;;;2.20;99.90;;;;;;5097715;28;20206;-78
2022/12/10 06:48:56;;;;;;;22.80;17.73;;;2.20;99.90;;;;;;5089082;28;20235;-77
2022/12/10 06:51:25;;;;;;;26.75;19.67;;;2.20;99.90;;;;;;5091338;28;20217;-78
2022/12/10 06:53:53;;;;;;;21.35;17.75;;;2.10;99.90;;;;;;5095155;28;20212;-77
2022/12/10 06:56:22;;;;;;;26.15;18.27;;;2.00;99.90;;;;;;5094253;28;20207;-78
2022/12/10 06:58:50;;;;;;;23.13;17.58;;;2.10;99.90;;;;;;5092224;28;20239;-78
2022/12/10 07:01:21;;;;;;;23.42;18.50;;;2.20;99.90;;;;;;5089061;27;20218;-79
2022/12/10 07:03:50;;;;;;;29.63;23.75;;;2.10;82.90;;;;;;5085736;27;20943;-78
2022/12/10 07:06:20;;;;;;;25.80;19.80;;;1.90;99.90;;;;;;5101097;28;20297;-76
2022/12/10 07:08:50;;;;;;;24.25;19.17;;;2.00;99.90;;;;;;5098236;27;20436;-78
2022/12/10 07:11:19;;;;;;;25.45;19.35;;;2.10;99.90;;;;;;5098575;28;20625;-78
2022/12/10 07:13:48;;;;;;;23.98;19.65;;;2.10;89.40;;;;;;5089713;28;20412;-79
2022/12/10 07:16:17;;;;;;;22.52;17.90;;;2.10;99.90;;;;;;5094892;28;20246;-79
2022/12/10 07:18:47;;;;;;;25.83;18.85;;;2.10;61.90;;;;;;5094223;28;20277;-80
2022/12/10 07:21:21;;;;;;;24.67;19.30;;;2.00;67.30;;;;;;5094168;28;20209;-78
2022/12/10 07:23:53;;;;;;;30.73;19.63;;;2.00;99.90;;;;;;5097250;28;20211;-77
2022/12/10 07:26:22;;;;;;;26.40;19.75;;;2.10;23.20;;;;;;5099787;28;20204;-77
2022/12/10 07:28:50;;;;;;;24.48;19.30;;;2.10;99.90;;;;;;5096714;28;20525;-76
2022/12/10 07:31:21;;;;;;;25.60;19.33;;;2.10;99.90;;;;;;5092131;28;20720;-77
2022/12/10 07:33:50;;;;;;;26.55;19.17;;;2.10;99.90;;;;;;5094997;28;20232;-76
2022/12/10 07:36:19;;;;;;;27.13;19.42;;;2.10;92.40;;;;;;5099796;28;20197;-77
2022/12/10 07:38:47;;;;;;;22.70;18.77;;;2.00;99.90;;;;;;5092136;28;21266;-76
2022/12/10 07:41:17;;;;;;;27.55;20.25;;;2.10;99.90;;;;;;5090478;27;20204;-77
2022/12/10 07:43:46;;;;;;;28.23;20.48;;;2.10;69.10;;;;;;5092054;27;20193;-77
2022/12/10 07:46:19;;;;;;;24.98;19.27;;;2.10;58.80;;;;;;5089034;28;20203;-76
2022/12/10 07:48:48;;;;;;;26.95;19.17;;;2.20;1.00;;;;;;5092902;28;20201;-77
2022/12/10 07:51:20;;;;;;;26.75;19.75;;;2.20;1.00;;;;;;5096408;28;20230;-79
2022/12/10 07:53:49;;;;;;;27.08;20.48;;;2.20;1.00;;;;;;5097293;27;20210;-78
2022/12/10 07:56:18;;;;;;;29.25;20.67;;;2.20;1.00;;;;;;5082806;28;20201;-79
2022/12/10 07:58:46;;;;;;;31.13;23.58;;;2.20;99.90;;;;;;5096552;28;20208;-77
2022/12/10 08:01:16;;;;;;;30.40;21.00;;;2.20;1.00;;;;;;5087162;28;20201;-78
2022/12/10 08:03:45;;;;;;;30.35;20.85;;;2.20;1.00;;;;;;5086932;28;20847;-78
2022/12/10 08:06:15;;;;;;;23.35;18.48;;;2.30;1.00;;;;;;5095506;28;20200;-77
2022/12/10 08:08:44;;;;;;;25.45;20.10;;;2.40;1.00;;;;;;5097915;27;20201;-78
2022/12/10 08:11:14;;;;;;;25.60;19.17;;;2.30;99.90;;;;;;5094166;28;20244;-78
2022/12/10 08:13:44;;;;;;;26.80;20.00;;;2.20;99.90;;;;;;5087430;28;20768;-77
2022/12/10 08:16:16;;;;;;;23.85;18.40;;;2.30;1.00;;;;;;5091723;27;20201;-77
2022/12/10 08:18:45;;;;;;;26.58;18.58;;;2.30;1.00;;;;;;5089039;28;20201;-78
2022/12/10 08:21:15;;;;;;;25.88;19.45;;;2.30;1.00;;;;;;5093732;27;20240;-78
2022/12/10 08:23:44;;;;;;;33.65;22.73;;;2.30;1.00;;;;;;5102465;27;20191;-77
2022/12/10 08:26:14;;;;;;;29.83;19.73;;;2.30;99.90;;;;;;5095385;28;20197;-77
2022/12/10 08:28:43;;;;;;;25.70;18.40;;;2.30;1.00;;;;;;5091832;28;20225;-78
2022/12/10 08:31:13;;;;;;;28.88;20.05;;;2.20;1.00;;;;;;5093026;27;20210;-78
2022/12/10 08:33:42;;;;;;;28.60;20.20;;;2.30;1.00;;;;;;5098076;27;20657;-77
2022/12/10 08:36:13;;;;;;;25.10;17.85;;;2.30;1.00;;;;;;5093769;27;20201;-79
2022/12/10 08:38:42;;;;;;;26.20;19.00;;;2.30;99.90;;;;;;5092136;28;20596;-79
2022/12/10 08:41:12;;;;;;;24.83;19.13;;;2.30;1.00;;;;;;5090826;28;20229;-80
2022/12/10 08:43:41;;;;;;;24.35;16.95;;;2.40;1.00;;;;;;5092152;28;20201;-79
2022/12/10 08:46:11;;;;;;;24.73;18.88;;;2.40;1.00;;;;;;5094209;27;20201;-79
2022/12/10 08:48:40;;;;;;;26.13;20.05;;;2.40;99.90;;;;;;5095000;28;20205;-77
2022/12/10 08:51:09;;;;;;;26.38;19.58;;;2.50;99.90;;;;;;5096141;27;20222;-78
2022/12/10 08:53:37;;;;;;;25.27;18.15;;;2.50;1.00;;;;;;5091823;27;20221;-80
2022/12/10 08:56:06;;;;;;;30.48;21.50;;;2.50;93.80;;;;;;5097165;27;20493;-80
2022/12/10 08:58:34;;;;;;;24.55;19.35;;;2.60;99.90;;;;;;5098282;28;20209;-79
2022/12/10 09:01:08;;;;;;;26.75;19.92;;;2.60;99.90;;;;;;5095629;28;20252;-78
2022/12/10 09:03:39;;;;;;;24.92;19.17;;;2.50;1.00;;;;;;5103267;27;20200;-78
2022/12/10 09:06:09;;;;;;;27.27;21.58;;;2.70;99.90;;;;;;5099134;28;20439;-79
2022/12/10 09:08:38;;;;;;;28.63;21.95;;;2.60;1.00;;;;;;5092289;28;20502;-80
2022/12/10 09:11:07;;;;;;;24.48;18.63;;;2.50;99.90;;;;;;5097986;28;20219;-80
2022/12/10 09:13:35;;;;;;;26.17;19.05;;;2.60;1.00;;;;;;5098850;28;20216;-79
2022/12/10 09:16:04;;;;;;;26.05;19.27;;;2.60;1.00;;;;;;5099181;28;20250;-78
2022/12/10 09:18:32;;;;;;;25.63;17.80;;;2.70;99.90;;;;;;5097948;28;20617;-79
2022/12/10 09:21:05;;;;;;;25.90;18.52;;;2.70;42.70;;;;;;5093953;28;20220;-80
2022/12/10 09:23:34;;;;;;;28.52;19.35;;;2.60;1.00;;;;;;5094425;28;20452;-79
2022/12/10 09:26:06;;;;;;;26.48;19.60;;;2.60;99.90;;;;;;5092039;28;20201;-78
2022/12/10 09:28:34;;;;;;;23.75;19.02;;;2.60;99.90;;;;;;5093922;28;20229;-79
2022/12/10 09:31:03;;;;;;;27.10;18.48;;;2.60;1.00;;;;;;5094048;28;20221;-80
2022/12/10 09:33:38;;;;;;;31.63;20.67;;;2.70;99.90;;;;;;5100004;28;20216;-79
2022/12/10 09:36:09;;;;;;;24.08;17.58;;;2.70;99.90;;;;;;5098140;28;20205;-80
2022/12/10 09:38:39;;;;;;;24.55;18.85;;;2.70;1.00;;;;;;5095815;28;20198;-78
2022/12/10 09:41:48;;;;;;;23.70;18.27;;;2.50;99.90;;;;;;5091170;28;20218;-79
2022/12/10 09:44:26;;;;;;;24.60;17.45;;;2.50;1.00;;;;;;5095709;28;20292;-79
2022/12/10 09:46:56;;;;;;;23.23;17.88;;;2.60;1.00;;;;;;5098694;28;20731;-79
2022/12/10 09:49:38;;;;;;;23.85;18.95;;;2.60;1.00;;;;;;5098137;28;20249;-80
2022/12/10 09:52:12;;;;;;;23.85;18.30;;;2.70;1.00;;;;;;5096546;28;20236;-78
2022/12/10 09:54:44;;;;;;;20.08;17.10;;;2.70;99.90;;;;;;5094888;28;20196;-79
2022/12/10 09:57:20;;;;;;;22.92;18.38;;;2.70;1.00;;;;;;5097149;28;20206;-80
2022/12/10 09:59:50;;;;;;;25.08;19.15;;;2.60;1.00;;;;;;5095612;28;20202;-79
2022/12/10 10:02:25;;;;;;;28.88;18.85;;;2.70;91.70;;;;;;5098494;28;20275;-79
2022/12/10 10:04:57;;;;;;;26.20;19.63;;;2.70;1.00;;;;;;5095592;28;20205;-79
2022/12/10 10:07:30;;;;;;;33.28;21.88;;;2.70;1.00;;;;;;5095349;28;20288;-79
2022/12/10 10:10:01;;;;;;;28.63;19.48;;;2.90;99.90;;;;;;5099190;28;20203;-78
2022/12/10 10:12:32;;;;;;;32.47;21.50;;;2.80;1.00;;;;;;5095597;28;20268;-79
2022/12/10 10:15:12;;;;;;;30.55;22.80;;;2.70;99.90;;;;;;5098196;28;20209;-80
2022/12/10 10:17:45;;;;;;;29.75;21.90;;;2.70;99.90;;;;;;5100481;28;20197;-79
2022/12/10 10:20:15;;;;;;;23.58;18.15;;;2.70;99.90;;;;;;5097459;28;20210;-78
2022/12/10 10:22:44;;;;;;;28.70;18.70;;;2.60;99.90;;;;;;5095604;28;20231;-78
2022/12/10 10:25:16;;;;;;;27.55;18.95;;;2.70;1.00;;;;;;5097168;28;20202;-79
2022/12/10 10:27:44;;;;;;;22.30;16.70;;;2.70;1.00;;;;;;5094168;28;20199;-78
2022/12/10 10:30:16;;;;;;;28.35;20.45;;;2.70;1.00;;;;;;5097287;28;20203;-78
2022/12/10 10:32:49;;;;;;;24.48;19.25;;;2.70;1.00;;;;;;5103846;27;20219;-79
2022/12/10 10:35:26;;;;;;;20.50;17.08;;;2.80;1.00;;;;;;5097578;28;20207;-79
2022/12/10 10:38:00;;;;;;;27.15;19.35;;;2.80;26.20;;;;;;5094594;28;20212;-80
2022/12/10 10:40:32;;;;;;;27.88;20.25;;;2.90;99.90;;;;;;5098619;28;20268;-79
2022/12/10 10:43:01;;;;;;;22.45;17.95;;;2.90;62.20;;;;;;5098519;28;20239;-79
2022/12/10 10:45:36;;;;;;;26.70;18.42;;;3.00;99.90;;;;;;5097007;28;20201;-79
2022/12/10 10:48:06;;;;;;;23.60;17.52;;;3.10;14.40;;;;;;5100305;28;20197;-80
2022/12/10 10:50:39;;;;;;;27.80;20.17;;;2.90;99.90;;;;;;5102528;27;20741;-79
2022/12/10 10:53:28;;;;;;;26.38;18.90;;;2.90;1.00;;;;;;5096777;27;20257;-78
2022/12/10 10:56:00;;;;;;;26.27;18.88;;;2.90;1.00;;;;;;5096393;28;20197;-79
2022/12/10 10:58:28;;;;;;;20.58;17.02;;;2.80;99.90;;;;;;5098140;27;20225;-78
2022/12/10 11:00:59;;;;;;;22.15;17.83;;;2.90;99.90;;;;;;5096461;28;20206;-80
2022/12/10 11:03:30;;;;;;;20.70;16.45;;;3.10;1.00;;;;;;5099875;27;20680;-79
2022/12/10 11:05:59;;;;;;;24.10;16.52;;;2.90;99.90;;;;;;5098758;27;20198;-79
2022/12/10 11:08:31;;;;;;;19.80;17.42;;;2.90;29.70;;;;;;5098907;28;20302;-80
2022/12/10 11:11:04;;;;;;;26.58;18.92;;;2.90;1.00;;;;;;5094988;28;20225;-80
2022/12/10 11:13:35;;;;;;;24.17;17.88;;;2.90;1.00;;;;;;5095887;28;20621;-80
2022/12/10 11:16:12;;;;;;;22.92;17.70;;;3.00;1.00;;;;;;5098069;28;20632;-79
2022/12/10 11:18:43;;;;;;;21.50;17.02;;;3.00;99.90;;;;;;5103316;27;20205;-79
2022/12/10 11:21:21;;;;;;;24.73;18.85;;;2.90;1.00;;;;;;5095222;28;20633;-80
2022/12/10 11:23:54;;;;;;;23.55;16.52;;;2.90;99.90;;;;;;5092472;27;20280;-78
2022/12/10 11:26:38;;;;;;;23.02;17.23;;;2.90;88.50;;;;;;5093210;27;20211;-79
2022/12/10 11:29:25;;;;;;;20.30;16.35;;;3.10;99.90;;;;;;5095124;27;20277;-79
2022/12/10 11:32:11;;;;;;;24.35;17.75;;;3.00;1.00;;;;;;5097658;28;20222;-79
2022/12/10 11:34:52;;;;;;;25.25;18.33;;;3.00;99.90;;;;;;5099170;27;20635;-79
2022/12/10 11:37:29;;;;;;;20.25;15.57;;;3.10;1.00;;;;;;5099765;27;20286;-80
2022/12/10 11:40:25;;;;;;;21.33;16.70;;;3.00;1.00;;;;;;5101742;27;20205;-79
2022/12/10 11:43:05;;;;;;;23.88;17.55;;;3.00;99.90;;;;;;5094835;27;20247;-80
2022/12/10 11:45:46;;;;;;;18.77;15.07;;;3.10;62.70;;;;;;5096883;28;20535;-79
2022/12/10 11:48:35;;;;;;;22.23;16.23;;;3.20;14.00;;;;;;5101625;27;20243;-80
2022/12/10 11:51:16;;;;;;;18.63;14.63;;;3.10;99.90;;;;;;5091237;28;20213;-79
2022/12/10 11:53:58;;;;;;;22.42;15.80;;;3.10;99.90;;;;;;5099715;27;20243;-79
2022/12/10 11:56:31;;;;;;;22.60;16.92;;;3.10;99.90;;;;;;5098454;28;20199;-79
2022/12/10 11:59:10;;;;;;;20.98;15.10;;;3.10;99.90;;;;;;5089162;28;20926;-79
2022/12/10 12:02:00;;;;;;;18.92;15.25;;;3.10;99.90;;;;;;5099301;27;20212;-81
2022/12/10 12:04:50;;;;;;;19.60;15.02;;;3.10;1.00;;;;;;5097480;27;20236;-79
2022/12/10 12:07:35;;;;;;;21.92;17.23;;;3.20;99.90;;;;;;5097033;28;20211;-80
2022/12/10 12:10:42;;;;;;;19.17;16.00;;;3.30;1.00;;;;;;5096667;28;20197;-80
2022/12/10 12:13:27;;;;;;;33.10;20.30;;;3.30;17.00;;;;;;5093167;28;20231;-79
2022/12/10 12:16:00;;;;;;;27.42;19.20;;;3.30;1.00;;;;;;5090699;28;20212;-80
2022/12/10 12:18:37;;;;;;;22.95;16.75;;;3.20;1.00;;;;;;5096060;28;20309;-80
2022/12/10 12:21:10;;;;;;;18.85;16.02;;;3.20;1.00;;;;;;5095767;28;20207;-78
2022/12/10 12:23:46;;;;;;;20.98;16.40;;;3.40;1.00;;;;;;5099563;27;20209;-78
2022/12/10 12:26:17;;;;;;;20.90;15.50;;;3.40;1.00;;;;;;5095563;27;20214;-80
2022/12/10 12:28:51;;;;;;;17.70;15.15;;;3.40;1.00;;;;;;5093362;27;20364;-80
2022/12/10 12:31:24;;;;;;;17.15;14.35;;;3.40;99.90;;;;;;5084266;28;20290;-81
2022/12/10 12:33:59;;;;;;;18.52;14.98;;;3.40;99.90;;;;;;5089566;28;20200;-78
2022/12/10 12:36:30;;;;;;;22.02;16.77;;;3.30;1.00;;;;;;5093081;28;20199;-80
2022/12/10 12:39:03;;;;;;;18.45;14.95;;;3.40;1.00;;;;;;5094233;28;20205;-78
2022/12/10 12:41:38;;;;;;;18.80;15.00;;;3.30;99.90;;;;;;5092717;28;20256;-79
2022/12/10 12:44:15;;;;;;;17.40;13.68;;;3.20;99.90;;;;;;5095092;28;20196;-79
2022/12/10 12:46:45;;;;;;;17.08;12.98;;;3.30;99.90;;;;;;5087896;28;20205;-79
2022/12/10 12:49:21;;;;;;;18.70;14.55;;;3.40;1.00;;;;;;5092776;28;20781;-80
2022/12/10 12:51:55;;;;;;;20.60;17.85;;;3.30;1.00;;;;;;5092109;28;20443;-78
2022/12/10 12:54:23;;;;;;;17.75;14.75;;;3.20;99.90;;;;;;5093166;28;20201;-80
2022/12/10 12:57:02;;;;;;;16.33;13.20;;;3.30;99.90;;;;;;5094023;28;20202;-79
2022/12/10 12:59:47;;;;;;;19.48;14.27;;;3.30;8.40;;;;;;5086004;28;20203;-82
2022/12/10 13:02:27;;;;;;;16.30;12.50;;;3.30;99.90;;;;;;5095796;28;20309;-80
2022/12/10 13:04:55;;;;;;;14.18;12.13;;;3.40;22.40;;;;;;5091366;27;20614;-80
2022/12/10 13:07:35;;;;;;;17.38;13.90;;;3.20;1.00;;;;;;5096484;28;20185;-81
2022/12/10 13:10:24;;;;;;;16.42;13.00;;;3.20;32.10;;;;;;5096343;28;20644;-80
2022/12/10 13:13:07;;;;;;;17.30;12.95;;;3.30;99.90;;;;;;5094369;28;20719;-80
2022/12/10 13:15:38;;;;;;;16.42;13.13;;;3.20;99.90;;;;;;5097409;28;20204;-79
2022/12/10 13:18:37;;;;;;;20.33;14.82;;;3.20;78.20;;;;;;5093902;28;20198;-81